sensor_id;sensor_type;location;lat;lon;timestamp;pressure;altitude;pressure_sealevel;temperature;humidity
40592;BME280;26301;42.832;23.918;2023-02-04T00:01:59;92843.19;;;-0.27;99.05
40592;BME280;26301;42.832;23.918;2023-02-04T00:04:26;92836.25;;;-0.18;98.45
40592;BME280;26301;42.832;23.918;2023-02-04T00:06:53;92813.91;;;-0.30;98.96
40592;BME280;26301;42.832;23.918;2023-02-04T00:09:19;92827.72;;;-0.17;98.75
40592;BME280;26301;42.832;23.918;2023-02-04T00:11:47;92817.91;;;-0.20;99.11
40592;BME280;26301;42.832;23.918;2023-02-04T00:14:13;92807.22;;;-0.16;98.01
40592;BME280;26301;42.832;23.918;2023-02-04T00:16:40;92803.97;;;-0.25;98.54
40592;BME280;26301;42.832;23.918;2023-02-04T00:19:07;92799.53;;;-0.22;98.72
40592;BME280;26301;42.832;23.918;2023-02-04T00:21:33;92763.84;;;-0.36;98.90
40592;BME280;26301;42.832;23.918;2023-02-04T00:23:59;92799.06;;;-0.11;98.62
40592;BME280;26301;42.832;23.918;2023-02-04T00:26:25;92778.13;;;-0.13;98.67
40592;BME280;26301;42.832;23.918;2023-02-04T00:28:51;92786.00;;;-0.08;98.06
40592;BME280;26301;42.832;23.918;2023-02-04T00:31:18;92758.41;;;-0.33;98.64
40592;BME280;26301;42.832;23.918;2023-02-04T00:33:44;92779.59;;;-0.04;97.67
40592;BME280;26301;42.832;23.918;2023-02-04T00:36:11;92774.09;;;-0.08;97.54
40592;BME280;26301;42.832;23.918;2023-02-04T00:38:37;92770.00;;;-0.09;98.24
40592;BME280;26301;42.832;23.918;2023-02-04T00:41:03;92731.69;;;-0.29;96.38
40592;BME280;26301;42.832;23.918;2023-02-04T00:43:32;92744.81;;;-0.25;95.95
40592;BME280;26301;42.832;23.918;2023-02-04T00:45:59;92729.41;;;-0.24;93.71
40592;BME280;26301;42.832;23.918;2023-02-04T00:48:25;92759.13;;;-0.03;91.81
40592;BME280;26301;42.832;23.918;2023-02-04T00:50:51;92685.09;;;-0.42;93.59
40592;BME280;26301;42.832;23.918;2023-02-04T00:53:18;92745.72;;;0.04;90.93
40592;BME280;26301;42.832;23.918;2023-02-04T00:55:44;92716.78;;;0.05;87.63
40592;BME280;26301;42.832;23.918;2023-02-04T00:58:10;92733.78;;;0.26;86.50
40592;BME280;26301;42.832;23.918;2023-02-04T01:00:37;92729.53;;;0.33;87.00
40592;BME280;26301;42.832;23.918;2023-02-04T01:03:03;92722.72;;;0.33;88.23
40592;BME280;26301;42.832;23.918;2023-02-04T01:05:30;92711.63;;;0.41;87.57
40592;BME280;26301;42.832;23.918;2023-02-04T01:07:56;92719.50;;;0.46;87.45
40592;BME280;26301;42.832;23.918;2023-02-04T01:10:22;92707.44;;;0.55;86.09
40592;BME280;26301;42.832;23.918;2023-02-04T01:12:49;92681.16;;;0.41;85.43
40592;BME280;26301;42.832;23.918;2023-02-04T01:15:15;92703.16;;;0.55;86.84
40592;BME280;26301;42.832;23.918;2023-02-04T01:17:41;92708.50;;;0.67;86.75
40592;BME280;26301;42.832;23.918;2023-02-04T01:20:08;92695.75;;;0.60;83.73
40592;BME280;26301;42.832;23.918;2023-02-04T01:22:34;92692.13;;;0.76;83.22
40592;BME280;26301;42.832;23.918;2023-02-04T01:25:01;92678.78;;;0.67;81.15
40592;BME280;26301;42.832;23.918;2023-02-04T01:27:27;92691.94;;;0.78;80.78
40592;BME280;26301;42.832;23.918;2023-02-04T01:29:53;92686.91;;;0.84;80.41
40592;BME280;26301;42.832;23.918;2023-02-04T01:32:19;92665.94;;;0.76;79.30
40592;BME280;26301;42.832;23.918;2023-02-04T01:34:45;92644.38;;;0.72;79.28
40592;BME280;26301;42.832;23.918;2023-02-04T01:37:11;92680.72;;;0.94;79.19
40592;BME280;26301;42.832;23.918;2023-02-04T01:39:38;92678.75;;;0.96;78.94
40592;BME280;26301;42.832;23.918;2023-02-04T01:42:04;92647.34;;;0.75;78.02
40592;BME280;26301;42.832;23.918;2023-02-04T01:44:30;92682.50;;;1.00;78.83
40592;BME280;26301;42.832;23.918;2023-02-04T01:46:56;92670.75;;;0.99;79.72
40592;BME280;26301;42.832;23.918;2023-02-04T01:49:23;92650.50;;;0.84;79.33
40592;BME280;26301;42.832;23.918;2023-02-04T01:51:49;92664.09;;;0.98;79.69
40592;BME280;26301;42.832;23.918;2023-02-04T01:54:15;92656.25;;;0.99;78.22
40592;BME280;26301;42.832;23.918;2023-02-04T01:56:46;92640.44;;;0.97;76.96
40592;BME280;26301;42.832;23.918;2023-02-04T01:59:15;92665.16;;;1.17;77.38
40592;BME280;26301;42.832;23.918;2023-02-04T02:01:51;92658.13;;;1.19;76.93
40592;BME280;26301;42.832;23.918;2023-02-04T02:04:20;92645.78;;;1.16;76.37
40592;BME280;26301;42.832;23.918;2023-02-04T02:06:56;92644.41;;;1.20;76.43
40592;BME280;26301;42.832;23.918;2023-02-04T02:09:23;92662.81;;;1.15;77.58
40592;BME280;26301;42.832;23.918;2023-02-04T02:11:49;92647.31;;;1.03;78.41
40592;BME280;26301;42.832;23.918;2023-02-04T02:14:15;92657.50;;;1.10;79.16
40592;BME280;26301;42.832;23.918;2023-02-04T02:16:41;92670.25;;;1.17;79.67
40592;BME280;26301;42.832;23.918;2023-02-04T02:19:09;92653.78;;;1.06;77.93
40592;BME280;26301;42.832;23.918;2023-02-04T02:24:45;92665.75;;;1.19;78.22
40592;BME280;26301;42.832;23.918;2023-02-04T02:27:11;92646.31;;;1.04;77.84
40592;BME280;26301;42.832;23.918;2023-02-04T02:29:40;92656.88;;;1.08;78.88
40592;BME280;26301;42.832;23.918;2023-02-04T02:32:08;92643.63;;;1.12;80.10
40592;BME280;26301;42.832;23.918;2023-02-04T02:34:34;92651.84;;;1.14;79.02
40592;BME280;26301;42.832;23.918;2023-02-04T02:37:01;92640.81;;;1.01;77.93
40592;BME280;26301;42.832;23.918;2023-02-04T02:39:28;92659.28;;;1.16;78.53
40592;BME280;26301;42.832;23.918;2023-02-04T02:41:55;92644.41;;;1.13;77.12
40592;BME280;26301;42.832;23.918;2023-02-04T02:44:22;92640.69;;;1.16;77.82
40592;BME280;26301;42.832;23.918;2023-02-04T02:46:48;92622.03;;;1.02;77.78
40592;BME280;26301;42.832;23.918;2023-02-04T02:49:16;92618.31;;;0.98;77.62
40592;BME280;26301;42.832;23.918;2023-02-04T02:51:43;92638.75;;;1.18;78.38
40592;BME280;26301;42.832;23.918;2023-02-04T02:54:29;92629.34;;;1.18;76.96
40592;BME280;26301;42.832;23.918;2023-02-04T02:56:56;92616.03;;;1.09;76.88
40592;BME280;26301;42.832;23.918;2023-02-04T02:59:24;92614.47;;;1.08;76.28
40592;BME280;26301;42.832;23.918;2023-02-04T03:01:53;92636.03;;;1.26;77.79
40592;BME280;26301;42.832;23.918;2023-02-04T03:04:22;92615.47;;;1.21;78.29
40592;BME280;26301;42.832;23.918;2023-02-04T03:06:48;92630.16;;;1.32;76.80
40592;BME280;26301;42.832;23.918;2023-02-04T03:09:15;92613.31;;;1.18;77.37
40592;BME280;26301;42.832;23.918;2023-02-04T03:11:41;92629.78;;;1.28;77.98
40592;BME280;26301;42.832;23.918;2023-02-04T03:14:07;92616.28;;;1.28;78.35
40592;BME280;26301;42.832;23.918;2023-02-04T03:16:33;92598.06;;;1.18;79.23
40592;BME280;26301;42.832;23.918;2023-02-04T03:19:02;92611.56;;;1.25;78.68
40592;BME280;26301;42.832;23.918;2023-02-04T03:21:29;92608.03;;;1.19;77.86
40592;BME280;26301;42.832;23.918;2023-02-04T03:23:56;92577.09;;;1.09;77.68
40592;BME280;26301;42.832;23.918;2023-02-04T03:26:25;92599.41;;;1.20;77.44
40592;BME280;26301;42.832;23.918;2023-02-04T03:28:55;92611.97;;;1.28;78.98
40592;BME280;26301;42.832;23.918;2023-02-04T03:31:20;92579.66;;;1.16;80.27
40592;BME280;26301;42.832;23.918;2023-02-04T03:33:46;92596.53;;;1.30;77.23
40592;BME280;26301;42.832;23.918;2023-02-04T03:36:12;92609.19;;;1.23;77.52
40592;BME280;26301;42.832;23.918;2023-02-04T03:38:37;92598.22;;;1.16;78.00
40592;BME280;26301;42.832;23.918;2023-02-04T03:41:03;92567.44;;;0.91;77.62
40592;BME280;26301;42.832;23.918;2023-02-04T03:43:29;92591.75;;;1.13;78.40
40592;BME280;26301;42.832;23.918;2023-02-04T03:45:55;92603.53;;;1.14;78.57
40592;BME280;26301;42.832;23.918;2023-02-04T03:48:21;92579.00;;;1.00;78.76
40592;BME280;26301;42.832;23.918;2023-02-04T03:50:47;92602.16;;;1.19;79.49
40592;BME280;26301;42.832;23.918;2023-02-04T03:53:13;92597.06;;;1.19;80.07
40592;BME280;26301;42.832;23.918;2023-02-04T03:55:39;92586.13;;;1.18;80.17
40592;BME280;26301;42.832;23.918;2023-02-04T03:58:05;92564.38;;;1.16;80.42
40592;BME280;26301;42.832;23.918;2023-02-04T04:00:31;92569.09;;;1.19;81.16
40592;BME280;26301;42.832;23.918;2023-02-04T04:02:58;92547.91;;;1.05;81.52
40592;BME280;26301;42.832;23.918;2023-02-04T04:05:24;92557.91;;;1.13;81.65
40592;BME280;26301;42.832;23.918;2023-02-04T04:07:50;92532.84;;;1.03;81.88
40592;BME280;26301;42.832;23.918;2023-02-04T04:10:16;92534.03;;;1.07;81.36
40592;BME280;26301;42.832;23.918;2023-02-04T04:12:42;92546.59;;;1.22;82.11
40592;BME280;26301;42.832;23.918;2023-02-04T04:15:09;92548.72;;;1.19;82.71
40592;BME280;26301;42.832;23.918;2023-02-04T04:17:35;92562.81;;;1.14;81.56
40592;BME280;26301;42.832;23.918;2023-02-04T04:20:00;92547.72;;;1.00;81.58
40592;BME280;26301;42.832;23.918;2023-02-04T04:22:26;92542.25;;;1.03;81.61
40592;BME280;26301;42.832;23.918;2023-02-04T04:24:52;92558.50;;;1.15;83.23
40592;BME280;26301;42.832;23.918;2023-02-04T04:27:17;92553.44;;;1.15;83.54
40592;BME280;26301;42.832;23.918;2023-02-04T04:29:43;92551.06;;;1.13;83.40
40592;BME280;26301;42.832;23.918;2023-02-04T04:32:09;92527.38;;;1.00;84.30
40592;BME280;26301;42.832;23.918;2023-02-04T04:34:35;92517.75;;;1.02;85.54
40592;BME280;26301;42.832;23.918;2023-02-04T04:37:00;92520.69;;;0.99;85.87
40592;BME280;26301;42.832;23.918;2023-02-04T04:39:26;92518.97;;;1.06;85.88
40592;BME280;26301;42.832;23.918;2023-02-04T04:41:52;92532.88;;;1.17;86.02
40592;BME280;26301;42.832;23.918;2023-02-04T04:44:19;92518.00;;;1.13;86.35
40592;BME280;26301;42.832;23.918;2023-02-04T04:46:45;92524.47;;;1.29;86.94
40592;BME280;26301;42.832;23.918;2023-02-04T04:49:10;92517.81;;;1.15;86.84
40592;BME280;26301;42.832;23.918;2023-02-04T04:51:38;92494.69;;;0.97;86.75
40592;BME280;26301;42.832;23.918;2023-02-04T04:54:04;92534.63;;;1.23;86.74
40592;BME280;26301;42.832;23.918;2023-02-04T04:56:30;92522.91;;;1.22;87.04
40592;BME280;26301;42.832;23.918;2023-02-04T04:58:56;92524.84;;;1.13;88.77
40592;BME280;26301;42.832;23.918;2023-02-04T05:01:22;92545.22;;;1.26;88.28
40592;BME280;26301;42.832;23.918;2023-02-04T05:03:48;92547.94;;;1.18;88.68
40592;BME280;26301;42.832;23.918;2023-02-04T05:06:14;92532.47;;;1.13;89.38
40592;BME280;26301;42.832;23.918;2023-02-04T05:08:40;92524.63;;;1.01;88.13
40592;BME280;26301;42.832;23.918;2023-02-04T05:11:05;92542.44;;;1.08;83.01
40592;BME280;26301;42.832;23.918;2023-02-04T05:13:31;92544.25;;;1.21;82.13
40592;BME280;26301;42.832;23.918;2023-02-04T05:15:57;92547.34;;;1.23;83.73
40592;BME280;26301;42.832;23.918;2023-02-04T05:18:22;92542.50;;;1.28;81.77
40592;BME280;26301;42.832;23.918;2023-02-04T05:20:48;92546.97;;;1.26;82.79
40592;BME280;26301;42.832;23.918;2023-02-04T05:23:14;92535.78;;;1.13;83.03
40592;BME280;26301;42.832;23.918;2023-02-04T05:25:41;92552.47;;;1.29;82.92
40592;BME280;26301;42.832;23.918;2023-02-04T05:28:07;92528.78;;;1.22;81.97
40592;BME280;26301;42.832;23.918;2023-02-04T05:30:32;92528.38;;;1.19;81.95
40592;BME280;26301;42.832;23.918;2023-02-04T05:32:58;92534.63;;;1.23;81.55
40592;BME280;26301;42.832;23.918;2023-02-04T05:35:23;92556.00;;;1.28;80.72
40592;BME280;26301;42.832;23.918;2023-02-04T05:37:49;92566.94;;;1.29;81.52
40592;BME280;26301;42.832;23.918;2023-02-04T05:40:15;92560.69;;;1.25;81.68
40592;BME280;26301;42.832;23.918;2023-02-04T05:42:40;92548.75;;;1.25;81.33
40592;BME280;26301;42.832;23.918;2023-02-04T05:45:09;92559.13;;;1.30;79.90
40592;BME280;26301;42.832;23.918;2023-02-04T05:47:37;92527.16;;;0.95;79.46
40592;BME280;26301;42.832;23.918;2023-02-04T05:50:03;92521.66;;;0.91;79.97
40592;BME280;26301;42.832;23.918;2023-02-04T05:52:29;92555.38;;;1.13;78.82
40592;BME280;26301;42.832;23.918;2023-02-04T05:54:54;92567.53;;;1.24;78.34
40592;BME280;26301;42.832;23.918;2023-02-04T05:57:20;92565.19;;;1.29;77.30
40592;BME280;26301;42.832;23.918;2023-02-04T05:59:45;92570.06;;;1.18;77.19
40592;BME280;26301;42.832;23.918;2023-02-04T06:02:11;92568.50;;;1.23;76.91
40592;BME280;26301;42.832;23.918;2023-02-04T06:04:36;92559.69;;;1.12;76.79
40592;BME280;26301;42.832;23.918;2023-02-04T06:07:02;92558.13;;;1.11;76.41
40592;BME280;26301;42.832;23.918;2023-02-04T06:09:27;92574.78;;;1.27;76.85
40592;BME280;26301;42.832;23.918;2023-02-04T06:11:53;92552.66;;;1.14;76.20
40592;BME280;26301;42.832;23.918;2023-02-04T06:14:18;92571.06;;;1.30;76.38
40592;BME280;26301;42.832;23.918;2023-02-04T06:16:44;92574.78;;;1.27;75.64
40592;BME280;26301;42.832;23.918;2023-02-04T06:19:09;92577.88;;;1.23;76.35
40592;BME280;26301;42.832;23.918;2023-02-04T06:21:35;92560.47;;;1.13;75.63
40592;BME280;26301;42.832;23.918;2023-02-04T06:24:00;92567.53;;;1.24;75.43
40592;BME280;26301;42.832;23.918;2023-02-04T06:26:26;92566.00;;;1.30;74.63
40592;BME280;26301;42.832;23.918;2023-02-04T06:28:52;92562.84;;;1.34;75.03
40592;BME280;26301;42.832;23.918;2023-02-04T06:31:17;92559.34;;;1.35;74.70
40592;BME280;26301;42.832;23.918;2023-02-04T06:33:43;92574.63;;;1.49;74.03
40592;BME280;26301;42.832;23.918;2023-02-04T06:36:09;92571.88;;;1.50;74.11
40592;BME280;26301;42.832;23.918;2023-02-04T06:38:34;92569.38;;;1.57;73.86
40592;BME280;26301;42.832;23.918;2023-02-04T06:41:00;92568.97;;;1.60;73.23
40592;BME280;26301;42.832;23.918;2023-02-04T06:43:25;92568.38;;;1.65;72.82
40592;BME280;26301;42.832;23.918;2023-02-04T06:45:52;92565.25;;;1.76;72.27
40592;BME280;26301;42.832;23.918;2023-02-04T06:48:17;92554.09;;;1.64;71.95
40592;BME280;26301;42.832;23.918;2023-02-04T06:50:43;92570.75;;;1.73;71.63
40592;BME280;26301;42.832;23.918;2023-02-04T06:53:09;92565.25;;;1.69;69.59
40592;BME280;26301;42.832;23.918;2023-02-04T06:55:34;92574.66;;;1.75;69.38
40592;BME280;26301;42.832;23.918;2023-02-04T06:58:00;92558.19;;;1.58;70.27
40592;BME280;26301;42.832;23.918;2023-02-04T07:00:26;92555.84;;;1.63;69.53
40592;BME280;26301;42.832;23.918;2023-02-04T07:02:52;92578.16;;;1.74;69.89
40592;BME280;26301;42.832;23.918;2023-02-04T07:05:18;92554.09;;;1.57;69.30
40592;BME280;26301;42.832;23.918;2023-02-04T07:07:43;92568.59;;;1.76;68.71
40592;BME280;26301;42.832;23.918;2023-02-04T07:10:09;92568.59;;;1.76;69.52
40592;BME280;26301;42.832;23.918;2023-02-04T07:12:34;92571.91;;;1.77;69.45
40592;BME280;26301;42.832;23.918;2023-02-04T07:15:00;92564.69;;;1.87;68.94
40592;BME280;26301;42.832;23.918;2023-02-04T07:17:26;92543.50;;;1.73;69.88
40592;BME280;26301;42.832;23.918;2023-02-04T07:19:51;92561.16;;;1.88;69.66
40592;BME280;26301;42.832;23.918;2023-02-04T07:22:17;92566.84;;;1.90;69.26
40592;BME280;26301;42.832;23.918;2023-02-04T07:24:43;92566.44;;;1.87;68.62
40592;BME280;26301;42.832;23.918;2023-02-04T07:27:09;92544.69;;;1.71;67.85
40592;BME280;26301;42.832;23.918;2023-02-04T07:29:34;92539.81;;;1.69;68.17
40592;BME280;26301;42.832;23.918;2023-02-04T07:32:00;92558.59;;;1.81;67.77
40592;BME280;26301;42.832;23.918;2023-02-04T07:34:25;92559.78;;;1.86;68.17
40592;BME280;26301;42.832;23.918;2023-02-04T07:36:51;92562.31;;;1.86;67.75
40592;BME280;26301;42.832;23.918;2023-02-04T07:39:17;92538.41;;;1.73;67.79
40592;BME280;26301;42.832;23.918;2023-02-04T07:41:42;92543.31;;;1.81;67.92
40592;BME280;26301;42.832;23.918;2023-02-04T07:44:14;92550.56;;;2.11;67.72
40592;BME280;26301;42.832;23.918;2023-02-04T07:46:39;92510.78;;;2.03;67.74
40592;BME280;26301;42.832;23.918;2023-02-04T07:49:05;92535.63;;;2.28;67.00
40592;BME280;26301;42.832;23.918;2023-02-04T07:51:31;92528.34;;;2.32;66.52
40592;BME280;26301;42.832;23.918;2023-02-04T07:53:56;92535.78;;;2.40;65.34
40592;BME280;26301;42.832;23.918;2023-02-04T07:56:22;92522.28;;;2.39;65.36
40592;BME280;26301;42.832;23.918;2023-02-04T07:58:51;92514.81;;;2.44;65.47
40592;BME280;26301;42.832;23.918;2023-02-04T08:01:17;92540.63;;;2.61;64.14
40592;BME280;26301;42.832;23.918;2023-02-04T08:03:43;92510.28;;;2.46;64.17
40592;BME280;26301;42.832;23.918;2023-02-04T08:06:09;92537.09;;;2.69;64.95
40592;BME280;26301;42.832;23.918;2023-02-04T08:08:37;92531.59;;;2.72;62.02
40592;BME280;26301;42.832;23.918;2023-02-04T08:11:03;92520.44;;;2.66;61.62
40592;BME280;26301;42.832;23.918;2023-02-04T08:13:28;92532.69;;;2.96;61.82
40592;BME280;26301;42.832;23.918;2023-02-04T08:15:54;92528.56;;;2.95;61.00
40592;BME280;26301;42.832;23.918;2023-02-04T08:18:20;92536.94;;;3.09;60.88
40592;BME280;26301;42.832;23.918;2023-02-04T08:20:45;92528.09;;;3.11;61.88
40592;BME280;26301;42.832;23.918;2023-02-04T08:23:14;92521.38;;;3.17;60.03
40592;BME280;26301;42.832;23.918;2023-02-04T08:25:58;92528.59;;;3.27;61.45
40592;BME280;26301;42.832;23.918;2023-02-04T08:28:31;92519.34;;;3.32;61.32
40592;BME280;26301;42.832;23.918;2023-02-04T08:30:57;92522.06;;;3.31;59.73
40592;BME280;26301;42.832;23.918;2023-02-04T08:33:23;92516.94;;;3.37;60.11
40592;BME280;26301;42.832;23.918;2023-02-04T08:35:49;92505.03;;;3.25;59.86
40592;BME280;26301;42.832;23.918;2023-02-04T08:38:16;92524.44;;;3.32;59.59
40592;BME280;26301;42.832;23.918;2023-02-04T08:40:42;92519.53;;;3.31;60.20
40592;BME280;26301;42.832;23.918;2023-02-04T08:43:08;92513.09;;;3.21;60.06
40592;BME280;26301;42.832;23.918;2023-02-04T08:45:37;92511.19;;;3.17;61.46
40592;BME280;26301;42.832;23.918;2023-02-04T08:48:03;92511.53;;;3.20;60.96
40592;BME280;26301;42.832;23.918;2023-02-04T08:50:28;92523.72;;;3.25;60.38
40592;BME280;26301;42.832;23.918;2023-02-04T08:52:55;92514.47;;;3.24;60.90
40592;BME280;26301;42.832;23.918;2023-02-04T08:55:30;92528.19;;;3.30;62.36
40592;BME280;26301;42.832;23.918;2023-02-04T08:58:04;92519.41;;;3.19;61.54
40592;BME280;26301;42.832;23.918;2023-02-04T09:00:37;92535.06;;;3.29;61.88
40592;BME280;26301;42.832;23.918;2023-02-04T09:03:02;92526.25;;;3.25;60.75
40592;BME280;26301;42.832;23.918;2023-02-04T09:05:28;92523.81;;;3.37;60.62
40592;BME280;26301;42.832;23.918;2023-02-04T09:07:53;92528.66;;;3.45;61.11
40592;BME280;26301;42.832;23.918;2023-02-04T09:10:19;92526.53;;;3.42;61.83
40592;BME280;26301;42.832;23.918;2023-02-04T09:12:45;92518.50;;;3.38;61.74
40592;BME280;26301;42.832;23.918;2023-02-04T09:15:11;92529.72;;;3.37;61.56
40592;BME280;26301;42.832;23.918;2023-02-04T09:17:37;92533.66;;;3.33;60.64
40592;BME280;26301;42.832;23.918;2023-02-04T09:20:04;92535.25;;;3.34;62.42
40592;BME280;26301;42.832;23.918;2023-02-04T09:22:30;92518.28;;;3.40;62.48
40592;BME280;26301;42.832;23.918;2023-02-04T09:24:55;92509.22;;;3.19;61.97
40592;BME280;26301;42.832;23.918;2023-02-04T09:27:21;92476.91;;;3.00;62.17
40592;BME280;26301;42.832;23.918;2023-02-04T09:29:49;92531.63;;;3.42;62.12
40592;BME280;26301;42.832;23.918;2023-02-04T09:32:15;92530.75;;;3.55;62.52
40592;BME280;26301;42.832;23.918;2023-02-04T09:34:41;92528.13;;;3.68;63.09
40592;BME280;26301;42.832;23.918;2023-02-04T09:37:17;92484.91;;;3.41;62.44
40592;BME280;26301;42.832;23.918;2023-02-04T09:39:43;92490.53;;;3.50;62.26
40592;BME280;26301;42.832;23.918;2023-02-04T09:42:13;92510.25;;;3.68;61.55
40592;BME280;26301;42.832;23.918;2023-02-04T09:44:43;92537.78;;;3.66;61.86
40592;BME280;26301;42.832;23.918;2023-02-04T09:47:11;92516.03;;;3.57;62.95
40592;BME280;26301;42.832;23.918;2023-02-04T09:49:43;92512.81;;;3.43;63.54
40592;BME280;26301;42.832;23.918;2023-02-04T09:52:13;92505.00;;;3.31;65.85
40592;BME280;26301;42.832;23.918;2023-02-04T09:54:40;92507.75;;;3.30;66.56
40592;BME280;26301;42.832;23.918;2023-02-04T09:57:19;92501.75;;;3.17;67.63
40592;BME280;26301;42.832;23.918;2023-02-04T09:59:45;92499.78;;;3.19;68.70
40592;BME280;26301;42.832;23.918;2023-02-04T10:02:23;92522.16;;;3.17;68.81
40592;BME280;26301;42.832;23.918;2023-02-04T10:04:51;92528.41;;;3.21;68.75
40592;BME280;26301;42.832;23.918;2023-02-04T10:07:20;92529.91;;;3.04;70.50
40592;BME280;26301;42.832;23.918;2023-02-04T10:09:55;92516.00;;;2.93;71.19
40592;BME280;26301;42.832;23.918;2023-02-04T10:12:21;92512.84;;;2.98;71.48
40592;BME280;26301;42.832;23.918;2023-02-04T10:14:48;92499.00;;;2.81;71.39
40592;BME280;26301;42.832;23.918;2023-02-04T10:17:19;92512.03;;;2.97;72.32
40592;BME280;26301;42.832;23.918;2023-02-04T10:19:45;92519.50;;;2.99;72.14
40592;BME280;26301;42.832;23.918;2023-02-04T10:22:29;92530.88;;;3.03;73.79
40592;BME280;26301;42.832;23.918;2023-02-04T10:24:55;92527.34;;;2.97;73.31
40592;BME280;26301;42.832;23.918;2023-02-04T10:27:21;92496.88;;;2.64;73.19
40592;BME280;26301;42.832;23.918;2023-02-04T10:29:57;92524.31;;;2.75;74.11
40592;BME280;26301;42.832;23.918;2023-02-04T10:32:29;92520.19;;;2.81;75.53
40592;BME280;26301;42.832;23.918;2023-02-04T10:34:59;92492.41;;;2.60;75.61
40592;BME280;26301;42.832;23.918;2023-02-04T10:37:26;92499.47;;;2.58;75.55
40592;BME280;26301;42.832;23.918;2023-02-04T10:39:52;92500.25;;;2.58;76.14
40592;BME280;26301;42.832;23.918;2023-02-04T10:42:23;92509.25;;;2.61;77.34
40592;BME280;26301;42.832;23.918;2023-02-04T10:44:50;92506.69;;;2.67;77.90
40592;BME280;26301;42.832;23.918;2023-02-04T10:47:23;92520.00;;;2.76;78.48
40592;BME280;26301;42.832;23.918;2023-02-04T10:49:56;92531.22;;;2.68;79.62
40592;BME280;26301;42.832;23.918;2023-02-04T10:52:28;92501.88;;;2.39;81.02
40592;BME280;26301;42.832;23.918;2023-02-04T10:54:55;92527.31;;;2.52;82.70
40592;BME280;26301;42.832;23.918;2023-02-04T10:57:23;92511.25;;;2.52;82.61
40592;BME280;26301;42.832;23.918;2023-02-04T10:59:53;92512.03;;;2.59;83.04
40592;BME280;26301;42.832;23.918;2023-02-04T11:02:42;92505.50;;;2.70;83.92
40592;BME280;26301;42.832;23.918;2023-02-04T11:05:29;92513.41;;;2.62;84.27
40592;BME280;26301;42.832;23.918;2023-02-04T11:07:55;92492.84;;;2.43;85.78
40592;BME280;26301;42.832;23.918;2023-02-04T11:10:32;92520.09;;;2.49;86.56
40592;BME280;26301;42.832;23.918;2023-02-04T11:13:04;92492.06;;;2.43;86.60
40592;BME280;26301;42.832;23.918;2023-02-04T11:15:45;92508.91;;;2.50;87.44
40592;BME280;26301;42.832;23.918;2023-02-04T11:20:57;92508.94;;;2.44;89.29
40592;BME280;26301;42.832;23.918;2023-02-04T11:26:10;92506.22;;;2.39;91.17
40592;BME280;26301;42.832;23.918;2023-02-04T11:33:45;92475.63;;;2.39;90.97
40592;BME280;26301;42.832;23.918;2023-02-04T11:36:12;92488.47;;;2.64;91.09
40592;BME280;26301;42.832;23.918;2023-02-04T11:38:43;92499.97;;;2.86;90.32
40592;BME280;26301;42.832;23.918;2023-02-04T11:41:20;92475.41;;;2.85;90.00
40592;BME280;26301;42.832;23.918;2023-02-04T11:43:52;92475.97;;;2.94;89.49
40592;BME280;26301;42.832;23.918;2023-02-04T11:46:19;92490.59;;;3.12;89.12
40592;BME280;26301;42.832;23.918;2023-02-04T11:48:45;92468.22;;;3.14;87.69
40592;BME280;26301;42.832;23.918;2023-02-04T11:51:15;92460.59;;;3.07;88.66
40592;BME280;26301;42.832;23.918;2023-02-04T11:53:42;92483.56;;;3.01;89.43
40592;BME280;26301;42.832;23.918;2023-02-04T11:56:19;92488.91;;;2.99;90.65
40592;BME280;26301;42.832;23.918;2023-02-04T11:58:46;92477.00;;;2.86;90.65
40592;BME280;26301;42.832;23.918;2023-02-04T12:01:23;92488.84;;;3.06;91.10
40592;BME280;26301;42.832;23.918;2023-02-04T12:03:57;92463.22;;;2.94;90.70
40592;BME280;26301;42.832;23.918;2023-02-04T12:06:26;92475.84;;;3.14;90.40
40592;BME280;26301;42.832;23.918;2023-02-04T12:09:06;92474.28;;;3.13;90.46
40592;BME280;26301;42.832;23.918;2023-02-04T12:11:31;92471.13;;;3.17;91.52
40592;BME280;26301;42.832;23.918;2023-02-04T12:14:06;92467.75;;;2.92;90.56
40592;BME280;26301;42.832;23.918;2023-02-04T12:16:49;92433.28;;;2.76;88.62
40592;BME280;26301;42.832;23.918;2023-02-04T12:19:18;92426.09;;;2.66;91.90
40592;BME280;26301;42.832;23.918;2023-02-04T12:21:44;92439.16;;;2.83;91.68
40592;BME280;26301;42.832;23.918;2023-02-04T12:24:09;92457.88;;;3.02;91.40
40592;BME280;26301;42.832;23.918;2023-02-04T12:26:35;92454.69;;;3.07;90.33
40592;BME280;26301;42.832;23.918;2023-02-04T12:29:01;92436.16;;;2.93;90.32
40592;BME280;26301;42.832;23.918;2023-02-04T12:31:28;92436.72;;;2.95;87.51
40592;BME280;26301;42.832;23.918;2023-02-04T12:33:54;92382.56;;;2.61;88.71
40592;BME280;26301;42.832;23.918;2023-02-04T12:36:20;92428.81;;;2.71;88.26
40592;BME280;26301;42.832;23.918;2023-02-04T12:38:46;92448.88;;;2.55;89.03
40592;BME280;26301;42.832;23.918;2023-02-04T12:41:11;92448.19;;;2.41;89.86
40592;BME280;26301;42.832;23.918;2023-02-04T12:43:37;92439.41;;;2.23;91.18
40592;BME280;26301;42.832;23.918;2023-02-04T12:46:03;92446.44;;;2.28;92.57
40592;BME280;26301;42.832;23.918;2023-02-04T12:48:29;92448.00;;;2.29;92.91
40592;BME280;26301;42.832;23.918;2023-02-04T12:50:54;92448.59;;;2.24;94.18
40592;BME280;26301;42.832;23.918;2023-02-04T12:53:20;92452.31;;;2.28;93.37
40592;BME280;26301;42.832;23.918;2023-02-04T12:55:45;92446.84;;;2.25;93.23
40592;BME280;26301;42.832;23.918;2023-02-04T12:58:11;92453.31;;;2.21;93.74
40592;BME280;26301;42.832;23.918;2023-02-04T13:00:37;92468.22;;;2.24;93.83
40592;BME280;26301;42.832;23.918;2023-02-04T13:03:02;92461.78;;;2.08;93.51
40592;BME280;26301;42.832;23.918;2023-02-04T13:05:29;92459.81;;;2.10;93.97
40592;BME280;26301;42.832;23.918;2023-02-04T13:07:55;92472.53;;;2.23;93.85
40592;BME280;26301;42.832;23.918;2023-02-04T13:10:22;92477.78;;;2.35;94.20
40592;BME280;26301;42.832;23.918;2023-02-04T13:12:49;92480.31;;;2.42;94.14
40592;BME280;26301;42.832;23.918;2023-02-04T13:15:15;92464.81;;;2.43;93.20